Athens, Greece
Current Conditions -  °F | °C
As of 7:20 AM on Thursday 23 Oct 2014 (Local Time) from LGEL Reporting Station
Broken Clouds Broken Clouds  
Wind Chill: 22°   Ceiling: 7000
Heat Index: 22°   Visibility: 6mi
Dew Point: 17°   Wind: 15mph
Humidity: 73%   Direction: 160°SSE
Pressure: 29.5"   Gusts: NA
Location:  37.98°N, 23.73°E
Report Text: LGEL 230420Z 16013KT 9999 FEW015 SCT025 BKN070 22/17 Q0999
Loading
Personal Weather Stations






























Interactive Weather Map New forecast layout! Learn more

10-Day Weather Forecast

Advertisements
Track Severe Weather on mobile